createdAt,value
2023-05-03T00:01:01.485Z,5.70
2023-05-03T00:06:09.970Z,6.80
2023-05-03T00:11:11.501Z,8.68
2023-05-03T00:16:13.011Z,6.32
2023-05-03T00:21:14.778Z,5.85
2023-05-03T00:26:16.215Z,8.07
2023-05-03T00:31:17.671Z,4.70
2023-05-03T00:36:19.050Z,5.72
2023-05-03T00:41:20.412Z,13.75
2023-05-03T00:46:21.908Z,7.13
2023-05-03T00:51:23.588Z,9.30
2023-05-03T00:56:26.040Z,8.52
2023-05-03T01:01:28.722Z,7.10
2023-05-03T01:06:43.443Z,9.40
2023-05-03T01:11:54.428Z,11.20
2023-05-03T01:17:02.175Z,7.20
2023-05-03T01:22:22.937Z,6.38
2023-05-03T01:27:24.308Z,6.65
2023-05-03T01:32:31.050Z,4.03
2023-05-03T01:37:32.999Z,6.43
2023-05-03T01:42:36.301Z,8.80
2023-05-03T01:47:37.783Z,7.68
2023-05-03T01:52:39.244Z,9.40
2023-05-03T01:57:40.824Z,4.47
2023-05-03T02:02:42.411Z,6.50
2023-05-03T02:07:43.927Z,3.78
2023-05-03T02:12:45.546Z,7.97
2023-05-03T02:17:49.540Z,6.35
2023-05-03T02:22:51.130Z,5.00
2023-05-03T02:27:52.637Z,5.00
2023-05-03T02:32:54.086Z,4.40
2023-05-03T02:37:55.785Z,5.30
2023-05-03T02:42:57.158Z,5.78
2023-05-03T02:47:59.437Z,8.07
2023-05-03T02:53:00.882Z,4.35
2023-05-03T02:58:02.396Z,5.03
2023-05-03T03:03:04.065Z,4.30
2023-05-03T03:08:05.661Z,5.10
2023-05-03T03:13:07.097Z,5.95
2023-05-03T03:18:08.522Z,5.97
2023-05-03T03:23:10.016Z,6.00
2023-05-03T03:28:11.456Z,8.27
2023-05-03T03:33:13.001Z,3.75
2023-05-03T03:38:14.406Z,4.57
2023-05-03T03:43:16.041Z,5.60
2023-05-03T03:48:17.730Z,6.28
2023-05-03T03:53:19.205Z,3.13
2023-05-03T03:58:20.899Z,5.55
2023-05-03T04:03:22.410Z,6.63
2023-05-03T04:08:23.997Z,6.70
2023-05-03T04:13:25.381Z,4.55
2023-05-03T04:18:26.934Z,7.13
2023-05-03T04:23:28.693Z,7.68
2023-05-03T04:28:30.091Z,8.35
2023-05-03T04:33:31.502Z,5.35
2023-05-03T04:38:33.306Z,6.00
2023-05-03T04:43:34.763Z,6.55
2023-05-03T04:48:36.318Z,6.10
2023-05-03T04:53:37.703Z,5.68
2023-05-03T04:58:39.361Z,6.85
2023-05-03T05:03:40.926Z,6.10
2023-05-03T05:08:42.865Z,4.43
2023-05-03T05:13:44.365Z,3.63
2023-05-03T05:18:46.069Z,6.65
2023-05-03T05:23:50.033Z,6.68
2023-05-03T05:28:51.537Z,6.85
2023-05-03T05:33:53.124Z,6.13
2023-05-03T05:38:54.559Z,6.78
2023-05-03T05:43:56.195Z,8.13
2023-05-03T05:48:57.786Z,7.35
2023-05-03T05:53:59.203Z,4.75
2023-05-03T05:59:00.945Z,6.70
2023-05-03T06:04:02.366Z,4.55
2023-05-03T06:09:16.614Z,5.47
2023-05-03T06:14:24.673Z,7.72
2023-05-03T06:19:26.043Z,6.20
2023-05-03T06:24:31.172Z,5.35
2023-05-03T06:29:32.602Z,3.30
2023-05-03T06:34:33.970Z,4.90
2023-05-03T06:39:35.394Z,6.88
2023-05-03T06:44:36.874Z,8.82
2023-05-03T06:49:38.326Z,7.35
2023-05-03T06:54:40.384Z,3.95
2023-05-03T06:59:41.819Z,7.53
2023-05-03T07:04:43.293Z,7.32
2023-05-03T07:09:44.693Z,5.45
2023-05-03T07:14:46.393Z,6.65
2023-05-03T07:19:49.079Z,6.68
2023-05-03T07:24:51.659Z,7.50
2023-05-03T07:29:53.119Z,8.32
2023-05-03T07:34:54.627Z,4.63
2023-05-03T07:39:56.119Z,7.63
2023-05-03T07:44:57.710Z,4.35
2023-05-03T07:49:59.186Z,8.77
2023-05-03T07:55:00.675Z,6.13
2023-05-03T08:00:02.695Z,5.88
2023-05-03T08:05:08.326Z,4.85
2023-05-03T08:10:10.348Z,4.90
2023-05-03T08:15:11.879Z,6.55
2023-05-03T08:20:13.593Z,4.85
2023-05-03T08:25:17.792Z,5.75
2023-05-03T08:30:20.100Z,9.75
2023-05-03T08:35:21.726Z,5.60
2023-05-03T08:40:24.055Z,7.57
2023-05-03T08:45:25.623Z,6.55
2023-05-03T08:50:27.428Z,6.60
2023-05-03T08:55:28.882Z,6.35
2023-05-03T09:00:30.341Z,7.20
2023-05-03T09:05:32.843Z,5.38
2023-05-03T09:10:36.657Z,6.28
2023-05-03T09:15:38.311Z,6.50
2023-05-03T09:20:40.950Z,5.40
2023-05-03T09:25:46.980Z,6.93
2023-05-03T09:30:49.227Z,6.80
2023-05-03T09:35:57.755Z,7.00
2023-05-03T09:40:59.691Z,5.72
2023-05-03T09:46:10.780Z,8.00
2023-05-03T09:51:12.601Z,5.00
2023-05-03T09:56:14.648Z,6.63
2023-05-03T10:01:16.595Z,8.50
2023-05-03T10:06:18.328Z,6.03
2023-05-03T10:11:22.116Z,6.43
2023-05-03T10:16:27.368Z,8.27
2023-05-03T10:21:49.085Z,5.88
2023-05-03T10:26:51.086Z,5.95
2023-05-03T10:31:52.969Z,6.03
2023-05-03T10:36:54.608Z,5.70
2023-05-03T10:42:03.736Z,7.43
2023-05-03T10:47:14.888Z,5.97
2023-05-03T10:52:45.315Z,7.90
2023-05-03T10:57:48.126Z,8.00
2023-05-03T11:03:09.933Z,6.70
2023-05-03T11:08:22.767Z,6.10
2023-05-03T11:13:24.323Z,4.55
2023-05-03T11:18:28.640Z,6.40
2023-05-03T11:23:30.144Z,5.15
2023-05-03T11:28:31.658Z,6.60
2023-05-03T11:33:35.062Z,4.65
2023-05-03T11:38:37.921Z,5.80
2023-05-03T11:43:46.738Z,5.90
2023-05-03T11:48:49.371Z,6.63
2023-05-03T11:53:51.499Z,7.80
2023-05-03T11:58:57.502Z,7.72
2023-05-03T12:04:02.252Z,6.18
2023-05-03T12:09:05.408Z,4.80
2023-05-03T12:14:07.371Z,9.10
2023-05-03T12:19:09.635Z,7.10
2023-05-03T12:24:11.476Z,6.85
2023-05-03T12:29:13.138Z,5.25
2023-05-03T12:34:32.460Z,6.97
2023-05-03T12:39:39.283Z,6.88
2023-05-03T12:44:43.340Z,7.70
2023-05-03T12:49:46.450Z,9.32
2023-05-03T12:55:02.883Z,9.35
2023-05-03T13:00:14.521Z,7.05
2023-05-03T13:05:33.191Z,6.30
2023-05-03T13:10:36.211Z,9.60
2023-05-03T13:15:38.016Z,7.43
2023-05-03T13:20:39.417Z,7.45
2023-05-03T13:25:40.972Z,8.07
2023-05-03T13:30:42.380Z,7.65
2023-05-03T13:35:44.625Z,6.60
2023-05-03T13:40:47.201Z,7.50
2023-05-03T13:45:49.116Z,6.63
2023-05-03T13:50:50.613Z,10.70
2023-05-03T13:55:52.096Z,6.25
2023-05-03T14:00:53.586Z,7.07
2023-05-03T14:05:55.354Z,9.00
2023-05-03T14:10:56.829Z,7.45
2023-05-03T14:15:58.314Z,7.38
2023-05-03T14:20:59.835Z,7.28
2023-05-03T14:26:04.853Z,7.18
2023-05-03T14:31:06.810Z,7.53
2023-05-03T14:36:08.901Z,8.45
2023-05-03T14:41:10.307Z,8.85
2023-05-03T14:46:11.694Z,8.50
2023-05-03T14:51:15.090Z,8.18
2023-05-03T14:56:16.565Z,11.02
2023-05-03T15:01:19.266Z,7.30
2023-05-03T15:06:28.932Z,10.23
2023-05-03T15:11:30.304Z,9.23
2023-05-03T15:16:31.751Z,6.45
2023-05-03T15:21:46.493Z,8.70
2023-05-03T15:26:48.169Z,8.02
2023-05-03T15:31:49.563Z,8.02
2023-05-03T15:36:50.978Z,9.68
2023-05-03T15:41:52.408Z,16.33
2023-05-03T15:46:55.085Z,8.48
2023-05-03T15:51:56.688Z,7.53
2023-05-03T15:56:59.167Z,9.40
2023-05-03T16:02:00.765Z,7.28
2023-05-03T16:07:02.196Z,7.13
2023-05-03T16:12:03.708Z,7.15
2023-05-03T16:17:05.173Z,7.75
2023-05-03T16:22:06.750Z,12.73
2023-05-03T16:27:08.197Z,7.75
2023-05-03T16:32:11.059Z,7.47
2023-05-03T16:37:12.514Z,8.40
2023-05-03T16:42:13.950Z,7.45
2023-05-03T16:47:15.764Z,9.13
2023-05-03T16:52:17.186Z,8.57
2023-05-03T16:57:20.826Z,10.38
2023-05-03T17:02:23.365Z,11.00
2023-05-03T17:07:24.890Z,8.00
2023-05-03T17:12:26.375Z,9.05
2023-05-03T17:17:27.933Z,9.85
2023-05-03T17:22:32.874Z,8.45
2023-05-03T17:27:34.381Z,7.45
2023-05-03T17:32:36.228Z,12.02
2023-05-03T17:37:37.773Z,8.55
2023-05-03T17:42:39.323Z,11.95
2023-05-03T17:47:41.200Z,9.38
2023-05-03T17:52:43.538Z,8.93
2023-05-03T17:57:45.808Z,11.32
2023-05-03T18:02:47.497Z,8.45
2023-05-03T18:07:48.965Z,8.48
2023-05-03T18:12:50.390Z,11.88
2023-05-03T18:17:51.916Z,11.80
2023-05-03T18:22:53.416Z,9.25
2023-05-03T18:27:54.998Z,9.70
2023-05-03T18:32:57.170Z,7.95
2023-05-03T18:37:58.650Z,7.72
2023-05-03T18:43:00.049Z,9.85
2023-05-03T18:48:01.534Z,10.45
2023-05-03T18:53:03.979Z,8.38
2023-05-03T18:58:05.791Z,12.40
2023-05-03T19:03:07.706Z,9.15
2023-05-03T19:08:09.250Z,11.70
2023-05-03T19:13:11.498Z,10.45
2023-05-03T19:18:14.764Z,10.98
2023-05-03T19:23:17.596Z,12.15
2023-05-03T19:28:18.968Z,10.25
2023-05-03T19:33:21.215Z,8.80
2023-05-03T19:38:22.629Z,9.73
2023-05-03T19:43:24.357Z,8.88
2023-05-03T19:48:26.773Z,8.88
2023-05-03T19:53:28.714Z,8.82
2023-05-03T19:58:30.617Z,10.63
2023-05-03T20:03:32.270Z,11.55
2023-05-03T20:08:36.013Z,10.27
2023-05-03T20:13:37.416Z,7.97
2023-05-03T20:18:38.944Z,11.68
2023-05-03T20:23:40.336Z,10.13
2023-05-03T20:28:41.936Z,8.77
2023-05-03T20:33:43.785Z,9.73
2023-05-03T20:38:45.898Z,10.13
2023-05-03T20:43:47.283Z,8.20
2023-05-03T20:48:48.719Z,8.60
2023-05-03T20:53:50.282Z,10.20
2023-05-03T20:58:51.741Z,8.73
2023-05-03T21:03:53.349Z,8.43
2023-05-03T21:08:54.774Z,10.05
2023-05-03T21:13:56.283Z,12.38
2023-05-03T21:18:57.735Z,9.02
2023-05-03T21:23:59.174Z,11.60
2023-05-03T21:29:00.705Z,12.43
2023-05-03T21:34:04.026Z,9.90
2023-05-03T21:39:05.440Z,9.13
2023-05-03T21:44:06.796Z,9.68
2023-05-03T21:49:08.592Z,13.35
2023-05-03T21:54:09.986Z,10.43
2023-05-03T21:59:11.393Z,9.88
2023-05-03T22:04:12.767Z,9.90
2023-05-03T22:09:14.230Z,11.20
2023-05-03T22:14:15.616Z,10.95
2023-05-03T22:19:17.030Z,11.23
2023-05-03T22:24:18.588Z,10.77
2023-05-03T22:29:20.068Z,11.38
2023-05-03T22:34:21.760Z,11.65
2023-05-03T22:39:23.595Z,12.70
2023-05-03T22:44:25.006Z,12.20
2023-05-03T22:49:26.835Z,11.18
2023-05-03T22:54:28.693Z,14.93
2023-05-03T22:59:30.203Z,10.02
2023-05-03T23:04:31.638Z,13.48
2023-05-03T23:09:33.097Z,10.98
2023-05-03T23:14:34.755Z,11.60
2023-05-03T23:19:37.020Z,12.90
2023-05-03T23:24:39.533Z,11.80
2023-05-03T23:29:40.998Z,12.35
2023-05-03T23:34:43.985Z,13.15
2023-05-03T23:39:45.776Z,11.10
2023-05-03T23:44:55.044Z,12.35
2023-05-03T23:49:57.341Z,10.70
2023-05-03T23:54:58.810Z,10.52
